createdAt,value
2022-10-01T00:01:04.369Z,61.88
2022-10-01T00:05:04.216Z,61.96
2022-10-01T00:09:06.372Z,61.89
2022-10-01T00:13:06.157Z,61.38
2022-10-01T00:17:05.896Z,61.28
2022-10-01T00:21:08.521Z,61.16
2022-10-01T00:25:11.146Z,61.46
2022-10-01T00:29:14.928Z,61.77
2022-10-01T00:33:14.683Z,61.95
2022-10-01T00:37:14.614Z,61.71
2022-10-01T00:41:17.509Z,62.40
2022-10-01T00:45:18.821Z,63.21
2022-10-01T00:49:21.815Z,64.46
2022-10-01T00:53:23.341Z,65.81
2022-10-01T00:57:29.214Z,67.41
2022-10-01T01:01:29.195Z,68.24
2022-10-01T01:05:29.310Z,67.16
2022-10-01T01:09:32.023Z,65.33
2022-10-01T01:13:39.361Z,64.48
2022-10-01T01:17:45.579Z,63.27
2022-10-01T01:21:48.967Z,62.46
2022-10-01T01:26:00.202Z,61.50
2022-10-01T01:30:05.896Z,62.48
2022-10-01T01:34:12.094Z,63.25
2022-10-01T01:38:15.595Z,63.15
2022-10-01T01:42:22.642Z,63.20
2022-10-01T01:46:31.698Z,63.00
2022-10-01T01:50:36.717Z,62.92
2022-10-01T01:54:37.826Z,63.05
2022-10-01T01:58:39.939Z,63.31
2022-10-01T02:02:45.973Z,63.99
2022-10-01T02:06:56.564Z,63.20
2022-10-01T02:11:29.577Z,62.34
2022-10-01T02:15:38.482Z,62.60
2022-10-01T02:19:47.149Z,62.47
2022-10-01T02:23:57.816Z,62.47
2022-10-01T02:28:01.154Z,63.81
2022-10-01T02:32:03.030Z,64.96
2022-10-01T02:36:07.302Z,65.65
2022-10-01T02:40:12.473Z,65.62
2022-10-01T02:44:20.399Z,65.30
2022-10-01T02:48:20.444Z,65.30
2022-10-01T02:52:29.455Z,66.15
2022-10-01T02:56:54.308Z,65.47
2022-10-01T03:00:56.030Z,64.66
2022-10-01T03:04:56.392Z,64.22
2022-10-01T03:09:00.084Z,63.60
2022-10-01T03:13:01.310Z,64.07
2022-10-01T03:17:00.947Z,65.61
2022-10-01T03:21:00.579Z,67.16
2022-10-01T03:25:02.376Z,67.80
2022-10-01T03:29:02.150Z,68.57
2022-10-01T03:33:01.685Z,67.45
2022-10-01T03:37:01.381Z,66.67
2022-10-01T03:41:03.254Z,66.53
2022-10-01T03:45:03.223Z,66.52
2022-10-01T03:49:02.690Z,66.27
2022-10-01T03:53:02.256Z,67.21
2022-10-01T03:57:03.925Z,66.89
2022-10-01T04:01:03.480Z,66.25
2022-10-01T04:05:03.271Z,66.24
2022-10-01T04:09:03.006Z,67.28
2022-10-01T04:13:04.730Z,67.46
2022-10-01T04:17:04.274Z,67.46
2022-10-01T04:21:04.042Z,68.06
2022-10-01T04:25:03.669Z,68.03
2022-10-01T04:29:08.418Z,68.18
2022-10-01T04:33:08.875Z,67.57
2022-10-01T04:37:08.643Z,65.75
2022-10-01T04:41:08.976Z,64.71
2022-10-01T04:45:13.133Z,64.63
2022-10-01T04:49:12.815Z,65.13
2022-10-01T04:53:12.634Z,64.88
2022-10-01T04:57:12.284Z,65.97
2022-10-01T05:01:14.193Z,66.05
2022-10-01T05:05:13.732Z,66.47
2022-10-01T05:09:13.461Z,67.82
2022-10-01T05:13:16.077Z,68.68
2022-10-01T05:17:18.141Z,68.07
2022-10-01T05:21:17.689Z,67.22
2022-10-01T05:25:17.947Z,66.76
2022-10-01T05:29:19.843Z,67.18
2022-10-01T05:33:24.193Z,66.66
2022-10-01T05:37:25.876Z,67.33
2022-10-01T05:41:25.657Z,68.16
2022-10-01T05:45:26.178Z,68.39
2022-10-01T05:49:28.137Z,68.88
2022-10-01T05:53:27.588Z,69.18
2022-10-01T05:57:27.373Z,69.26
2022-10-01T06:01:28.288Z,69.35
2022-10-01T06:05:31.914Z,69.52
2022-10-01T06:09:31.760Z,68.35
2022-10-01T06:13:31.687Z,66.20
2022-10-01T06:17:31.376Z,63.70
2022-10-01T06:21:33.701Z,61.20
2022-10-01T06:25:34.746Z,58.04
2022-10-01T06:29:34.393Z,54.94
2022-10-01T06:33:33.784Z,55.59
2022-10-01T06:37:39.149Z,55.56
2022-10-01T06:41:39.644Z,55.48
2022-10-01T06:45:43.138Z,53.55
2022-10-01T06:49:46.735Z,52.03
2022-10-01T06:53:49.554Z,51.82
2022-10-01T06:57:50.087Z,49.89
2022-10-01T07:01:56.315Z,48.56
2022-10-01T07:05:56.433Z,48.27
2022-10-01T07:09:58.596Z,47.68
2022-10-01T07:13:58.570Z,47.73
2022-10-01T07:17:58.266Z,46.54
2022-10-01T07:21:58.071Z,46.67
2022-10-01T07:25:59.484Z,46.84
2022-10-01T07:29:59.876Z,47.48
2022-10-01T07:34:00.290Z,47.27
2022-10-01T07:38:00.674Z,46.82
2022-10-01T07:42:02.678Z,46.66
2022-10-01T07:46:05.302Z,45.74
2022-10-01T07:50:06.779Z,45.29
2022-10-01T07:54:06.569Z,46.34
2022-10-01T07:58:08.514Z,47.82
2022-10-01T08:02:13.019Z,47.80
2022-10-01T08:06:14.815Z,47.68
2022-10-01T08:10:14.698Z,46.45
2022-10-01T08:14:18.900Z,46.71
2022-10-01T08:18:18.530Z,46.25
2022-10-01T08:22:18.466Z,46.81
2022-10-01T08:26:18.278Z,47.06
2022-10-01T08:30:20.899Z,46.49
2022-10-01T08:34:23.202Z,46.53
2022-10-01T08:38:22.495Z,46.39
2022-10-01T08:42:37.521Z,47.23
2022-10-01T08:46:39.878Z,48.30
2022-10-01T08:50:47.555Z,46.29
2022-10-01T08:54:52.333Z,46.48
2022-10-01T08:58:59.256Z,46.37
2022-10-01T09:03:06.979Z,45.73
2022-10-01T09:07:30.191Z,47.58
2022-10-01T09:11:45.738Z,48.15
2022-10-01T09:15:53.113Z,48.26
2022-10-01T09:20:05.419Z,47.87
2022-10-01T09:24:08.776Z,47.46
2022-10-01T09:28:16.099Z,45.72
2022-10-01T09:32:32.798Z,44.56
2022-10-01T09:36:40.178Z,46.12
2022-10-01T09:40:49.100Z,46.56
2022-10-01T09:44:53.598Z,44.78
2022-10-01T09:49:00.541Z,44.28
2022-10-01T09:53:03.188Z,43.14
2022-10-01T09:57:07.987Z,43.00
2022-10-01T10:01:14.889Z,41.08
2022-10-01T10:05:18.039Z,40.94
2022-10-01T10:09:24.882Z,38.80
2022-10-01T10:13:31.763Z,39.60
2022-10-01T10:17:31.020Z,39.27
2022-10-01T10:21:33.723Z,39.32
2022-10-01T10:25:35.785Z,39.09
2022-10-01T10:29:36.780Z,38.26
2022-10-01T10:33:36.949Z,37.36
2022-10-01T10:37:41.376Z,36.76
2022-10-01T10:41:47.860Z,37.57
2022-10-01T10:45:48.439Z,37.81
2022-10-01T10:49:51.724Z,38.72
2022-10-01T10:53:51.482Z,39.25
2022-10-01T10:57:57.569Z,39.39
2022-10-01T11:01:57.789Z,39.93
2022-10-01T11:06:11.397Z,38.92
2022-10-01T11:10:25.368Z,38.93
2022-10-01T11:14:47.873Z,37.82
2022-10-01T11:19:05.331Z,37.94
2022-10-01T11:23:21.361Z,37.57
2022-10-01T11:27:31.915Z,37.16
2022-10-01T11:31:40.562Z,36.92
2022-10-01T11:35:49.890Z,36.71
2022-10-01T11:39:54.587Z,36.55
2022-10-01T11:43:57.746Z,37.06
2022-10-01T11:48:03.858Z,36.58
2022-10-01T11:52:12.964Z,37.04
2022-10-01T11:56:34.100Z,35.88
2022-10-01T12:00:36.024Z,35.59
2022-10-01T12:04:45.497Z,35.78
2022-10-01T12:08:52.953Z,36.49
2022-10-01T12:12:58.941Z,35.88
2022-10-01T12:17:02.814Z,34.16
2022-10-01T12:21:10.045Z,34.98
2022-10-01T12:25:14.099Z,34.88
2022-10-01T12:29:20.506Z,34.98
2022-10-01T12:33:37.975Z,34.73
2022-10-01T12:37:54.911Z,33.52
2022-10-01T12:42:03.934Z,34.00
2022-10-01T12:46:13.590Z,33.61
2022-10-01T12:50:28.979Z,33.34
2022-10-01T12:54:59.720Z,32.45
2022-10-01T12:59:22.349Z,32.75
2022-10-01T13:03:52.635Z,32.66
2022-10-01T13:08:10.307Z,32.48
2022-10-01T13:12:25.568Z,31.75
2022-10-01T13:16:31.990Z,31.94
2022-10-01T13:20:40.857Z,32.13
2022-10-01T13:24:45.564Z,30.97
2022-10-01T13:29:05.238Z,31.52
2022-10-01T13:33:05.005Z,30.70
2022-10-01T13:37:19.076Z,31.70
2022-10-01T13:41:22.192Z,32.47
2022-10-01T13:45:31.135Z,32.40
2022-10-01T13:49:33.067Z,32.21
2022-10-01T13:53:35.818Z,31.83
2022-10-01T13:57:37.477Z,31.48
2022-10-01T14:01:43.981Z,32.50
2022-10-01T14:05:45.244Z,32.40
2022-10-01T14:09:48.487Z,32.58
2022-10-01T14:14:06.966Z,32.39
2022-10-01T14:18:14.887Z,32.22
2022-10-01T14:22:38.043Z,32.11
2022-10-01T14:26:42.765Z,32.26
2022-10-01T14:30:50.814Z,32.04
2022-10-01T14:35:05.664Z,32.24
2022-10-01T14:39:07.745Z,32.77
2022-10-01T14:43:21.893Z,33.60
2022-10-01T14:47:37.153Z,33.98
2022-10-01T14:52:09.296Z,34.42
2022-10-01T14:56:19.270Z,34.37
2022-10-01T15:00:24.189Z,35.15
2022-10-01T15:04:46.659Z,34.70
2022-10-01T15:08:48.314Z,33.92
2022-10-01T15:12:54.131Z,33.77
2022-10-01T15:16:56.419Z,33.47
2022-10-01T15:20:59.678Z,33.28
2022-10-01T15:25:03.221Z,33.65
2022-10-01T15:29:13.551Z,34.48
2022-10-01T15:33:27.165Z,35.20
2022-10-01T15:37:31.744Z,35.66
2022-10-01T15:41:33.541Z,36.14
2022-10-01T15:45:35.513Z,36.63
2022-10-01T15:49:35.294Z,36.87
2022-10-01T15:53:36.802Z,36.72
2022-10-01T15:57:40.179Z,36.84
2022-10-01T16:01:43.224Z,36.82
2022-10-01T16:05:48.442Z,36.90
2022-10-01T16:09:53.976Z,37.06
2022-10-01T16:13:54.609Z,37.28
2022-10-01T16:18:02.089Z,37.72
2022-10-01T16:22:22.591Z,38.02
2022-10-01T16:26:36.420Z,38.52
2022-10-01T16:30:36.533Z,39.19
2022-10-01T16:34:38.248Z,39.68
2022-10-01T16:38:37.419Z,39.64
2022-10-01T16:42:37.391Z,39.40
2022-10-01T16:46:36.745Z,39.87
2022-10-01T16:50:38.714Z,40.29
2022-10-01T16:54:39.095Z,41.37
2022-10-01T16:58:39.854Z,43.31
2022-10-01T17:02:39.589Z,44.68
2022-10-01T17:06:41.529Z,44.54
2022-10-01T17:10:44.921Z,44.08
2022-10-01T17:14:44.753Z,44.15
2022-10-01T17:18:43.905Z,44.37
2022-10-01T17:22:45.965Z,44.36
2022-10-01T17:26:47.317Z,43.64
2022-10-01T17:30:48.837Z,43.32
2022-10-01T17:34:49.086Z,43.52
2022-10-01T17:38:51.090Z,43.09
2022-10-01T17:42:50.781Z,43.01
2022-10-01T17:46:50.069Z,43.36
2022-10-01T17:50:50.461Z,44.25
2022-10-01T17:54:53.592Z,45.07
2022-10-01T17:58:55.626Z,45.25
2022-10-01T18:02:55.731Z,45.59
2022-10-01T18:06:59.548Z,45.80
2022-10-01T18:11:10.330Z,45.83
2022-10-01T18:15:11.720Z,45.66
2022-10-01T18:23:34.439Z,44.68
2022-10-01T18:27:40.169Z,43.84
2022-10-01T18:31:44.610Z,46.29
2022-10-01T18:35:45.455Z,46.36
2022-10-01T18:39:49.410Z,46.90
2022-10-01T18:43:51.495Z,47.41
2022-10-01T18:48:03.803Z,47.24
2022-10-01T18:52:17.756Z,47.33
2022-10-01T18:56:27.934Z,48.59
2022-10-01T19:00:37.339Z,50.58
2022-10-01T19:04:41.917Z,50.38
2022-10-01T19:09:13.477Z,51.09
2022-10-01T19:13:21.208Z,51.16
2022-10-01T19:17:40.407Z,50.96
2022-10-01T19:21:48.986Z,50.98
2022-10-01T19:25:57.193Z,51.58
2022-10-01T19:30:06.980Z,52.91
2022-10-01T19:34:19.158Z,53.14
2022-10-01T19:38:26.229Z,54.11
2022-10-01T19:42:31.439Z,55.23
2022-10-01T19:46:35.651Z,55.59
2022-10-01T19:50:42.790Z,55.56
2022-10-01T19:54:49.740Z,55.79
2022-10-01T19:58:49.564Z,55.68
2022-10-01T20:02:54.314Z,56.59
2022-10-01T20:07:04.087Z,58.30
2022-10-01T20:11:13.236Z,58.33
2022-10-01T20:15:22.655Z,58.59
2022-10-01T20:19:28.487Z,58.11
2022-10-01T20:23:47.467Z,57.16
2022-10-01T20:27:59.568Z,56.23
2022-10-01T20:32:06.239Z,56.46
2022-10-01T20:36:11.004Z,57.56
2022-10-01T20:40:24.636Z,58.44
2022-10-01T20:44:29.151Z,59.47
2022-10-01T20:48:34.071Z,59.74
2022-10-01T20:52:39.867Z,59.43
2022-10-01T20:56:46.152Z,59.40
2022-10-01T21:00:46.638Z,59.17
2022-10-01T21:04:54.057Z,58.06
2022-10-01T21:08:58.543Z,57.13
2022-10-01T21:13:08.462Z,57.17
2022-10-01T21:17:27.246Z,57.10
2022-10-01T21:21:37.661Z,57.33
2022-10-01T21:25:48.701Z,56.69
2022-10-01T21:30:09.463Z,56.25
2022-10-01T21:34:15.181Z,57.93
2022-10-01T21:38:28.185Z,62.08
2022-10-01T21:42:37.957Z,82.12
2022-10-01T21:46:50.991Z,94.71
2022-10-01T21:50:58.388Z,100.00
2022-10-01T21:55:25.860Z,100.00
2022-10-01T21:59:58.446Z,100.00
2022-10-01T22:04:11.144Z,100.00
2022-10-01T22:08:23.220Z,100.00
2022-10-01T22:12:28.022Z,100.00
2022-10-01T22:16:32.809Z,100.00
2022-10-01T22:20:41.249Z,100.00
2022-10-01T22:24:48.559Z,100.00
2022-10-01T22:28:53.756Z,100.00
2022-10-01T22:33:04.607Z,100.00
2022-10-01T22:37:20.796Z,100.00
2022-10-01T22:41:35.820Z,100.00
2022-10-01T22:46:09.237Z,100.00
2022-10-01T22:50:34.089Z,100.00
2022-10-01T22:55:08.745Z,100.00
2022-10-01T22:59:18.555Z,100.00
2022-10-01T23:03:31.572Z,100.00
2022-10-01T23:07:43.600Z,100.00
2022-10-01T23:12:11.296Z,100.00
2022-10-01T23:16:30.249Z,100.00
2022-10-01T23:20:58.589Z,100.00
2022-10-01T23:25:44.985Z,100.00
2022-10-01T23:30:15.538Z,100.00
2022-10-01T23:34:49.450Z,100.00
2022-10-01T23:39:10.263Z,100.00
2022-10-01T23:43:21.965Z,100.00
2022-10-01T23:47:47.126Z,100.00
2022-10-01T23:52:00.721Z,100.00
2022-10-01T23:56:25.023Z,100.00
